Terminal Aerodrome Forecast
Issued by NWS

Home | Current Version | Previous Version | Text Only | Print | Product List | Glossary On
Versions: 1 2 3 4 5 6 7 8 9 10 11 12
000
FTAK31 PAJN 261121
TAFAGY
TAF
PAGY 261121Z 2612/2712 03008KT P6SM FEW200
     FM261900 22007KT P6SM SCT150
     FM271100 20007KT P6SM -RA OVC040
      AMD LTD TO CLD VIS AND WIND=

USA.gov is the U.S. government's official web portal to all federal, state and local government web resources and services.